TAF Text Data
IDs:
Format:
Raw Decoded Include METAR

Data at: 1040 UTC 17 Feb 2019

KECP 170521Z 1706/1806 15003KT 1/2SM FG OVC007
  FM170800 14003KT 1/4SM FG OVC002
  FM171300 16005KT 2SM BR OVC003
  FM171500 17008KT 4SM BR OVC005
  FM171600 17010G18KT P6SM BKN025
  FM180200 15007KT 1SM BR BKN015